sensor_id;sensor_type;location;lat;lon;timestamp;P1;durP1;ratioP1;P2;durP2;ratioP2
10096;SDS011;5087;42.662;23.466;2024-03-08T00:01:40;0.30;;;0.30;;
10096;SDS011;5087;42.662;23.466;2024-03-08T00:04:11;0.30;;;0.30;;
10096;SDS011;5087;42.662;23.466;2024-03-08T00:06:40;0.40;;;0.40;;
10096;SDS011;5087;42.662;23.466;2024-03-08T00:09:09;0.40;;;0.40;;
10096;SDS011;5087;42.662;23.466;2024-03-08T00:11:36;0.30;;;0.30;;
10096;SDS011;5087;42.662;23.466;2024-03-08T00:14:04;0.40;;;0.40;;
10096;SDS011;5087;42.662;23.466;2024-03-08T00:16:33;0.40;;;0.40;;
10096;SDS011;5087;42.662;23.466;2024-03-08T00:19:04;0.50;;;0.50;;
10096;SDS011;5087;42.662;23.466;2024-03-08T00:21:32;0.40;;;0.40;;
10096;SDS011;5087;42.662;23.466;2024-03-08T00:23:59;0.30;;;0.30;;
10096;SDS011;5087;42.662;23.466;2024-03-08T00:26:26;0.30;;;0.30;;
10096;SDS011;5087;42.662;23.466;2024-03-08T00:28:54;0.50;;;0.50;;
10096;SDS011;5087;42.662;23.466;2024-03-08T00:31:21;0.40;;;0.40;;
10096;SDS011;5087;42.662;23.466;2024-03-08T00:33:48;0.40;;;0.40;;
10096;SDS011;5087;42.662;23.466;2024-03-08T00:36:15;0.50;;;0.50;;
10096;SDS011;5087;42.662;23.466;2024-03-08T00:38:43;0.40;;;0.40;;
10096;SDS011;5087;42.662;23.466;2024-03-08T00:41:13;0.40;;;0.40;;
10096;SDS011;5087;42.662;23.466;2024-03-08T00:43:40;0.40;;;0.40;;
10096;SDS011;5087;42.662;23.466;2024-03-08T00:46:07;0.40;;;0.40;;
10096;SDS011;5087;42.662;23.466;2024-03-08T00:48:34;0.40;;;0.40;;
10096;SDS011;5087;42.662;23.466;2024-03-08T00:51:03;0.40;;;0.40;;
10096;SDS011;5087;42.662;23.466;2024-03-08T00:53:30;0.40;;;0.40;;
10096;SDS011;5087;42.662;23.466;2024-03-08T00:55:59;0.40;;;0.40;;
10096;SDS011;5087;42.662;23.466;2024-03-08T00:58:25;0.30;;;0.30;;
10096;SDS011;5087;42.662;23.466;2024-03-08T01:00:53;0.23;;;0.23;;
10096;SDS011;5087;42.662;23.466;2024-03-08T01:03:22;0.40;;;0.40;;
10096;SDS011;5087;42.662;23.466;2024-03-08T01:05:49;0.30;;;0.30;;
10096;SDS011;5087;42.662;23.466;2024-03-08T01:08:16;0.30;;;0.30;;
10096;SDS011;5087;42.662;23.466;2024-03-08T01:10:44;0.30;;;0.30;;
10096;SDS011;5087;42.662;23.466;2024-03-08T01:13:12;0.40;;;0.40;;
10096;SDS011;5087;42.662;23.466;2024-03-08T01:15:39;0.30;;;0.30;;
10096;SDS011;5087;42.662;23.466;2024-03-08T01:18:07;0.30;;;0.30;;
10096;SDS011;5087;42.662;23.466;2024-03-08T01:20:35;0.40;;;0.40;;
10096;SDS011;5087;42.662;23.466;2024-03-08T01:23:02;0.30;;;0.30;;
10096;SDS011;5087;42.662;23.466;2024-03-08T01:25:32;0.30;;;0.30;;
10096;SDS011;5087;42.662;23.466;2024-03-08T01:27:59;0.30;;;0.30;;
10096;SDS011;5087;42.662;23.466;2024-03-08T01:30:34;0.30;;;0.30;;
10096;SDS011;5087;42.662;23.466;2024-03-08T01:33:02;0.30;;;0.30;;
10096;SDS011;5087;42.662;23.466;2024-03-08T01:35:30;0.30;;;0.30;;
10096;SDS011;5087;42.662;23.466;2024-03-08T01:37:57;0.40;;;0.40;;
10096;SDS011;5087;42.662;23.466;2024-03-08T01:40:24;0.53;;;0.53;;
10096;SDS011;5087;42.662;23.466;2024-03-08T01:42:51;0.60;;;0.60;;
10096;SDS011;5087;42.662;23.466;2024-03-08T01:45:19;0.50;;;0.50;;
10096;SDS011;5087;42.662;23.466;2024-03-08T01:47:47;0.50;;;0.50;;
10096;SDS011;5087;42.662;23.466;2024-03-08T01:50:14;0.60;;;0.60;;
10096;SDS011;5087;42.662;23.466;2024-03-08T01:52:42;0.50;;;0.50;;
10096;SDS011;5087;42.662;23.466;2024-03-08T01:55:11;0.50;;;0.50;;
10096;SDS011;5087;42.662;23.466;2024-03-08T01:57:49;0.50;;;0.50;;
10096;SDS011;5087;42.662;23.466;2024-03-08T02:00:16;0.50;;;0.50;;
10096;SDS011;5087;42.662;23.466;2024-03-08T02:02:45;0.70;;;0.70;;
10096;SDS011;5087;42.662;23.466;2024-03-08T02:05:14;0.80;;;0.80;;
10096;SDS011;5087;42.662;23.466;2024-03-08T02:07:41;0.70;;;0.70;;
10096;SDS011;5087;42.662;23.466;2024-03-08T02:10:09;0.70;;;0.70;;
10096;SDS011;5087;42.662;23.466;2024-03-08T02:12:37;0.90;;;0.90;;
10096;SDS011;5087;42.662;23.466;2024-03-08T02:15:05;1.00;;;1.00;;
10096;SDS011;5087;42.662;23.466;2024-03-08T02:17:33;1.10;;;1.10;;
10096;SDS011;5087;42.662;23.466;2024-03-08T02:20:00;1.20;;;1.20;;
10096;SDS011;5087;42.662;23.466;2024-03-08T02:22:30;1.33;;;1.33;;
10096;SDS011;5087;42.662;23.466;2024-03-08T02:24:58;1.30;;;1.30;;
10096;SDS011;5087;42.662;23.466;2024-03-08T02:27:26;1.40;;;1.40;;
10096;SDS011;5087;42.662;23.466;2024-03-08T02:29:58;1.30;;;1.30;;
10096;SDS011;5087;42.662;23.466;2024-03-08T02:32:27;1.60;;;1.60;;
10096;SDS011;5087;42.662;23.466;2024-03-08T02:34:56;1.40;;;1.40;;
10096;SDS011;5087;42.662;23.466;2024-03-08T02:37:25;1.50;;;1.50;;
10096;SDS011;5087;42.662;23.466;2024-03-08T02:39:58;1.70;;;1.70;;
10096;SDS011;5087;42.662;23.466;2024-03-08T02:42:25;1.77;;;1.77;;
10096;SDS011;5087;42.662;23.466;2024-03-08T02:44:52;1.83;;;1.83;;
10096;SDS011;5087;42.662;23.466;2024-03-08T02:47:19;2.10;;;2.10;;
10096;SDS011;5087;42.662;23.466;2024-03-08T02:49:46;2.10;;;2.10;;
10096;SDS011;5087;42.662;23.466;2024-03-08T02:52:15;2.30;;;2.30;;
10096;SDS011;5087;42.662;23.466;2024-03-08T02:54:42;2.50;;;2.50;;
10096;SDS011;5087;42.662;23.466;2024-03-08T02:57:11;2.23;;;2.23;;
10096;SDS011;5087;42.662;23.466;2024-03-08T02:59:40;1.93;;;1.93;;
10096;SDS011;5087;42.662;23.466;2024-03-08T03:02:07;1.80;;;1.80;;
10096;SDS011;5087;42.662;23.466;2024-03-08T03:04:35;2.00;;;2.00;;
10096;SDS011;5087;42.662;23.466;2024-03-08T03:07:02;1.90;;;1.90;;
10096;SDS011;5087;42.662;23.466;2024-03-08T03:09:30;1.93;;;1.93;;
10096;SDS011;5087;42.662;23.466;2024-03-08T03:11:58;1.93;;;1.93;;
10096;SDS011;5087;42.662;23.466;2024-03-08T03:14:26;1.80;;;1.80;;
10096;SDS011;5087;42.662;23.466;2024-03-08T03:16:53;2.13;;;2.13;;
10096;SDS011;5087;42.662;23.466;2024-03-08T03:19:23;2.60;;;2.60;;
10096;SDS011;5087;42.662;23.466;2024-03-08T03:21:50;2.70;;;2.70;;
10096;SDS011;5087;42.662;23.466;2024-03-08T03:24:18;3.50;;;3.50;;
10096;SDS011;5087;42.662;23.466;2024-03-08T03:26:49;3.33;;;3.33;;
10096;SDS011;5087;42.662;23.466;2024-03-08T03:29:17;3.43;;;3.43;;
10096;SDS011;5087;42.662;23.466;2024-03-08T03:31:47;3.30;;;3.30;;
10096;SDS011;5087;42.662;23.466;2024-03-08T03:34:14;3.20;;;3.20;;
10096;SDS011;5087;42.662;23.466;2024-03-08T03:36:41;3.20;;;3.20;;
10096;SDS011;5087;42.662;23.466;2024-03-08T03:39:10;3.80;;;3.80;;
10096;SDS011;5087;42.662;23.466;2024-03-08T03:41:38;3.80;;;3.80;;
10096;SDS011;5087;42.662;23.466;2024-03-08T03:44:05;3.53;;;3.53;;
10096;SDS011;5087;42.662;23.466;2024-03-08T03:46:32;4.40;;;4.30;;
10096;SDS011;5087;42.662;23.466;2024-03-08T03:49:01;4.80;;;4.70;;
10096;SDS011;5087;42.662;23.466;2024-03-08T03:51:28;4.40;;;4.30;;
10096;SDS011;5087;42.662;23.466;2024-03-08T03:54:00;4.60;;;4.50;;
10096;SDS011;5087;42.662;23.466;2024-03-08T03:56:28;4.30;;;4.20;;
10096;SDS011;5087;42.662;23.466;2024-03-08T03:58:58;4.57;;;4.47;;
10096;SDS011;5087;42.662;23.466;2024-03-08T04:01:25;4.57;;;4.47;;
10096;SDS011;5087;42.662;23.466;2024-03-08T04:03:52;4.70;;;4.60;;
10096;SDS011;5087;42.662;23.466;2024-03-08T04:06:20;4.60;;;4.50;;
10096;SDS011;5087;42.662;23.466;2024-03-08T04:08:48;4.93;;;4.83;;
10096;SDS011;5087;42.662;23.466;2024-03-08T04:11:15;5.77;;;5.67;;
10096;SDS011;5087;42.662;23.466;2024-03-08T04:13:42;6.00;;;5.90;;
10096;SDS011;5087;42.662;23.466;2024-03-08T04:16:09;6.00;;;5.90;;
10096;SDS011;5087;42.662;23.466;2024-03-08T04:18:50;6.80;;;6.60;;
10096;SDS011;5087;42.662;23.466;2024-03-08T04:21:17;6.70;;;6.50;;
10096;SDS011;5087;42.662;23.466;2024-03-08T04:23:46;6.17;;;6.07;;
10096;SDS011;5087;42.662;23.466;2024-03-08T04:26:14;4.37;;;4.27;;
10096;SDS011;5087;42.662;23.466;2024-03-08T04:28:41;2.60;;;2.60;;
10096;SDS011;5087;42.662;23.466;2024-03-08T04:31:08;1.80;;;1.80;;
10096;SDS011;5087;42.662;23.466;2024-03-08T04:33:35;1.50;;;1.50;;
10096;SDS011;5087;42.662;23.466;2024-03-08T04:36:04;1.50;;;1.50;;
10096;SDS011;5087;42.662;23.466;2024-03-08T04:38:33;1.30;;;1.30;;
10096;SDS011;5087;42.662;23.466;2024-03-08T04:41:01;1.10;;;1.10;;
10096;SDS011;5087;42.662;23.466;2024-03-08T04:43:29;0.90;;;0.90;;
10096;SDS011;5087;42.662;23.466;2024-03-08T04:45:56;0.80;;;0.80;;
10096;SDS011;5087;42.662;23.466;2024-03-08T04:48:23;0.70;;;0.70;;
10096;SDS011;5087;42.662;23.466;2024-03-08T04:50:51;0.70;;;0.70;;
10096;SDS011;5087;42.662;23.466;2024-03-08T04:53:19;0.70;;;0.70;;
10096;SDS011;5087;42.662;23.466;2024-03-08T04:55:46;0.50;;;0.50;;
10096;SDS011;5087;42.662;23.466;2024-03-08T04:58:15;0.50;;;0.50;;
10096;SDS011;5087;42.662;23.466;2024-03-08T05:00:42;0.50;;;0.50;;
10096;SDS011;5087;42.662;23.466;2024-03-08T05:03:09;0.60;;;0.60;;
10096;SDS011;5087;42.662;23.466;2024-03-08T05:05:36;0.30;;;0.30;;
10096;SDS011;5087;42.662;23.466;2024-03-08T05:08:04;0.50;;;0.50;;
10096;SDS011;5087;42.662;23.466;2024-03-08T05:10:32;0.60;;;0.60;;
10096;SDS011;5087;42.662;23.466;2024-03-08T05:12:59;0.60;;;0.60;;
10096;SDS011;5087;42.662;23.466;2024-03-08T05:15:27;0.70;;;0.70;;
10096;SDS011;5087;42.662;23.466;2024-03-08T05:17:54;0.70;;;0.70;;
10096;SDS011;5087;42.662;23.466;2024-03-08T05:20:26;0.80;;;0.80;;
10096;SDS011;5087;42.662;23.466;2024-03-08T05:22:53;0.80;;;0.80;;
10096;SDS011;5087;42.662;23.466;2024-03-08T05:25:20;0.80;;;0.80;;
10096;SDS011;5087;42.662;23.466;2024-03-08T05:27:48;0.80;;;0.80;;
10096;SDS011;5087;42.662;23.466;2024-03-08T05:30:15;0.90;;;0.90;;
10096;SDS011;5087;42.662;23.466;2024-03-08T05:32:43;0.80;;;0.80;;
10096;SDS011;5087;42.662;23.466;2024-03-08T05:35:10;0.60;;;0.60;;
10096;SDS011;5087;42.662;23.466;2024-03-08T05:37:38;0.60;;;0.60;;
10096;SDS011;5087;42.662;23.466;2024-03-08T05:40:05;0.50;;;0.50;;
10096;SDS011;5087;42.662;23.466;2024-03-08T05:42:35;0.40;;;0.40;;
10096;SDS011;5087;42.662;23.466;2024-03-08T05:45:02;0.30;;;0.30;;
10096;SDS011;5087;42.662;23.466;2024-03-08T05:47:31;0.30;;;0.30;;
10096;SDS011;5087;42.662;23.466;2024-03-08T05:50:01;0.40;;;0.40;;
10096;SDS011;5087;42.662;23.466;2024-03-08T05:52:29;0.40;;;0.40;;
10096;SDS011;5087;42.662;23.466;2024-03-08T05:54:56;0.30;;;0.30;;
10096;SDS011;5087;42.662;23.466;2024-03-08T05:57:25;0.40;;;0.40;;
10096;SDS011;5087;42.662;23.466;2024-03-08T05:59:53;0.60;;;0.60;;
10096;SDS011;5087;42.662;23.466;2024-03-08T06:02:19;0.40;;;0.40;;
10096;SDS011;5087;42.662;23.466;2024-03-08T06:04:47;0.60;;;0.60;;
10096;SDS011;5087;42.662;23.466;2024-03-08T06:07:16;0.70;;;0.70;;
10096;SDS011;5087;42.662;23.466;2024-03-08T06:09:45;0.60;;;0.60;;
10096;SDS011;5087;42.662;23.466;2024-03-08T06:12:13;0.60;;;0.60;;
10096;SDS011;5087;42.662;23.466;2024-03-08T06:14:48;0.60;;;0.60;;
10096;SDS011;5087;42.662;23.466;2024-03-08T06:17:15;0.80;;;0.80;;
10096;SDS011;5087;42.662;23.466;2024-03-08T06:19:43;0.90;;;0.90;;
10096;SDS011;5087;42.662;23.466;2024-03-08T06:22:11;0.90;;;0.90;;
10096;SDS011;5087;42.662;23.466;2024-03-08T06:24:41;1.10;;;1.10;;
10096;SDS011;5087;42.662;23.466;2024-03-08T06:27:08;1.30;;;1.30;;
10096;SDS011;5087;42.662;23.466;2024-03-08T06:29:35;1.50;;;1.50;;
10096;SDS011;5087;42.662;23.466;2024-03-08T06:32:02;1.70;;;1.70;;
10096;SDS011;5087;42.662;23.466;2024-03-08T06:34:29;2.10;;;2.10;;
10096;SDS011;5087;42.662;23.466;2024-03-08T06:36:56;1.90;;;1.90;;
10096;SDS011;5087;42.662;23.466;2024-03-08T06:39:26;2.23;;;2.23;;
10096;SDS011;5087;42.662;23.466;2024-03-08T06:41:59;2.23;;;2.23;;
10096;SDS011;5087;42.662;23.466;2024-03-08T06:44:27;2.13;;;2.13;;
10096;SDS011;5087;42.662;23.466;2024-03-08T06:46:54;2.67;;;2.67;;
10096;SDS011;5087;42.662;23.466;2024-03-08T06:49:23;3.00;;;3.00;;
10096;SDS011;5087;42.662;23.466;2024-03-08T06:51:52;3.20;;;3.20;;
10096;SDS011;5087;42.662;23.466;2024-03-08T06:54:19;3.50;;;3.50;;
10096;SDS011;5087;42.662;23.466;2024-03-08T06:56:46;4.10;;;4.00;;
10096;SDS011;5087;42.662;23.466;2024-03-08T06:59:15;4.70;;;4.60;;
10096;SDS011;5087;42.662;23.466;2024-03-08T07:01:43;5.50;;;5.40;;
10096;SDS011;5087;42.662;23.466;2024-03-08T07:04:11;6.10;;;6.00;;
10096;SDS011;5087;42.662;23.466;2024-03-08T07:06:38;6.20;;;6.10;;
10096;SDS011;5087;42.662;23.466;2024-03-08T07:09:06;7.00;;;6.80;;
10096;SDS011;5087;42.662;23.466;2024-03-08T07:11:33;7.90;;;7.70;;
10096;SDS011;5087;42.662;23.466;2024-03-08T07:14:00;9.03;;;8.73;;
10096;SDS011;5087;42.662;23.466;2024-03-08T07:16:32;9.77;;;9.47;;
10096;SDS011;5087;42.662;23.466;2024-03-08T07:19:00;10.20;;;9.90;;
10096;SDS011;5087;42.662;23.466;2024-03-08T07:21:28;12.73;;;12.33;;
10096;SDS011;5087;42.662;23.466;2024-03-08T07:23:56;14.40;;;13.90;;
10096;SDS011;5087;42.662;23.466;2024-03-08T07:26:38;14.33;;;13.83;;
10096;SDS011;5087;42.662;23.466;2024-03-08T07:29:05;14.80;;;14.30;;
10096;SDS011;5087;42.662;23.466;2024-03-08T07:31:34;14.60;;;14.10;;
10096;SDS011;5087;42.662;23.466;2024-03-08T07:34:15;15.20;;;14.60;;
10096;SDS011;5087;42.662;23.466;2024-03-08T07:36:42;16.43;;;15.83;;
10096;SDS011;5087;42.662;23.466;2024-03-08T07:39:09;17.63;;;16.93;;
10096;SDS011;5087;42.662;23.466;2024-03-08T07:41:39;18.63;;;17.93;;
10096;SDS011;5087;42.662;23.466;2024-03-08T07:44:06;21.13;;;20.23;;
10096;SDS011;5087;42.662;23.466;2024-03-08T07:46:34;20.07;;;19.27;;
10096;SDS011;5087;42.662;23.466;2024-03-08T08:16:39;16.53;;;15.93;;
10096;SDS011;5087;42.662;23.466;2024-03-08T08:19:13;16.43;;;15.83;;
10096;SDS011;5087;42.662;23.466;2024-03-08T08:21:41;16.23;;;15.63;;
10096;SDS011;5087;42.662;23.466;2024-03-08T08:24:07;16.63;;;16.03;;
10096;SDS011;5087;42.662;23.466;2024-03-08T08:26:36;17.43;;;16.73;;
10096;SDS011;5087;42.662;23.466;2024-03-08T08:29:03;17.93;;;17.23;;
10096;SDS011;5087;42.662;23.466;2024-03-08T08:31:31;17.50;;;16.80;;
10096;SDS011;5087;42.662;23.466;2024-03-08T08:34:00;17.97;;;17.27;;
10096;SDS011;5087;42.662;23.466;2024-03-08T08:36:28;17.70;;;17.00;;
10096;SDS011;5087;42.662;23.466;2024-03-08T08:38:56;17.53;;;16.87;;
10096;SDS011;5087;42.662;23.466;2024-03-08T08:41:35;17.53;;;16.83;;
10096;SDS011;5087;42.662;23.466;2024-03-08T08:44:01;18.20;;;17.50;;
10096;SDS011;5087;42.662;23.466;2024-03-08T08:46:29;17.70;;;17.00;;
10096;SDS011;5087;42.662;23.466;2024-03-08T08:51:48;16.73;;;16.13;;
10096;SDS011;5087;42.662;23.466;2024-03-08T08:54:15;17.30;;;16.70;;
10096;SDS011;5087;42.662;23.466;2024-03-08T08:56:46;16.90;;;16.30;;
10096;SDS011;5087;42.662;23.466;2024-03-08T08:59:13;17.03;;;16.43;;
10096;SDS011;5087;42.662;23.466;2024-03-08T09:01:41;16.97;;;16.37;;
10096;SDS011;5087;42.662;23.466;2024-03-08T09:04:09;15.77;;;15.17;;
10096;SDS011;5087;42.662;23.466;2024-03-08T09:06:42;16.63;;;16.03;;
10096;SDS011;5087;42.662;23.466;2024-03-08T09:09:10;15.47;;;14.97;;
10096;SDS011;5087;42.662;23.466;2024-03-08T09:11:38;15.20;;;14.70;;
10096;SDS011;5087;42.662;23.466;2024-03-08T09:14:09;15.87;;;15.27;;
10096;SDS011;5087;42.662;23.466;2024-03-08T09:16:37;15.17;;;14.67;;
10096;SDS011;5087;42.662;23.466;2024-03-08T09:19:04;14.93;;;14.43;;
10096;SDS011;5087;42.662;23.466;2024-03-08T09:21:32;14.40;;;13.90;;
10096;SDS011;5087;42.662;23.466;2024-03-08T09:24:05;14.50;;;14.00;;
10096;SDS011;5087;42.662;23.466;2024-03-08T09:26:32;16.80;;;16.20;;
10096;SDS011;5087;42.662;23.466;2024-03-08T09:29:03;16.27;;;15.67;;
10096;SDS011;5087;42.662;23.466;2024-03-08T09:31:49;15.80;;;15.20;;
10096;SDS011;5087;42.662;23.466;2024-03-08T09:34:17;14.00;;;13.50;;
10096;SDS011;5087;42.662;23.466;2024-03-08T09:36:44;13.40;;;13.00;;
10096;SDS011;5087;42.662;23.466;2024-03-08T09:41:59;12.30;;;11.90;;
10096;SDS011;5087;42.662;23.466;2024-03-08T09:44:27;12.83;;;12.43;;
10096;SDS011;5087;42.662;23.466;2024-03-08T09:47:08;14.60;;;14.10;;
10096;SDS011;5087;42.662;23.466;2024-03-08T09:49:39;14.97;;;14.47;;
10096;SDS011;5087;42.662;23.466;2024-03-08T09:52:06;14.60;;;14.10;;
10096;SDS011;5087;42.662;23.466;2024-03-08T09:54:36;14.10;;;13.60;;
10096;SDS011;5087;42.662;23.466;2024-03-08T10:14:28;10.07;;;9.77;;
10096;SDS011;5087;42.662;23.466;2024-03-08T10:17:00;12.37;;;11.97;;
10096;SDS011;5087;42.662;23.466;2024-03-08T10:19:32;13.77;;;13.27;;
10096;SDS011;5087;42.662;23.466;2024-03-08T10:22:00;11.77;;;11.37;;
10096;SDS011;5087;42.662;23.466;2024-03-08T10:24:29;11.00;;;10.70;;
10096;SDS011;5087;42.662;23.466;2024-03-08T10:27:01;11.53;;;11.17;;
10096;SDS011;5087;42.662;23.466;2024-03-08T10:29:32;11.93;;;11.53;;
10096;SDS011;5087;42.662;23.466;2024-03-08T10:31:59;11.10;;;10.80;;
10096;SDS011;5087;42.662;23.466;2024-03-08T10:34:30;11.10;;;10.80;;
10096;SDS011;5087;42.662;23.466;2024-03-08T10:36:58;10.63;;;10.33;;
10096;SDS011;5087;42.662;23.466;2024-03-08T10:39:34;11.17;;;10.87;;
10096;SDS011;5087;42.662;23.466;2024-03-08T10:42:03;10.00;;;9.70;;
10096;SDS011;5087;42.662;23.466;2024-03-08T10:44:48;9.40;;;9.10;;
10096;SDS011;5087;42.662;23.466;2024-03-08T10:47:23;8.83;;;8.63;;
10096;SDS011;5087;42.662;23.466;2024-03-08T10:49:59;10.77;;;10.47;;
10096;SDS011;5087;42.662;23.466;2024-03-08T10:52:41;10.80;;;10.50;;
10096;SDS011;5087;42.662;23.466;2024-03-08T10:55:10;9.40;;;9.10;;
10096;SDS011;5087;42.662;23.466;2024-03-08T10:57:40;10.20;;;9.90;;
10096;SDS011;5087;42.662;23.466;2024-03-08T11:00:10;10.60;;;10.30;;
10096;SDS011;5087;42.662;23.466;2024-03-08T11:02:43;12.00;;;11.60;;
10096;SDS011;5087;42.662;23.466;2024-03-08T11:05:11;13.17;;;12.77;;
10096;SDS011;5087;42.662;23.466;2024-03-08T11:08:00;13.60;;;13.20;;
10096;SDS011;5087;42.662;23.466;2024-03-08T11:10:29;11.30;;;11.00;;
10096;SDS011;5087;42.662;23.466;2024-03-08T11:12:56;10.97;;;10.67;;
10096;SDS011;5087;42.662;23.466;2024-03-08T11:15:25;11.77;;;11.37;;
10096;SDS011;5087;42.662;23.466;2024-03-08T11:18:16;10.20;;;9.90;;
10096;SDS011;5087;42.662;23.466;2024-03-08T11:20:45;10.20;;;9.90;;
10096;SDS011;5087;42.662;23.466;2024-03-08T11:23:16;9.00;;;8.80;;
10096;SDS011;5087;42.662;23.466;2024-03-08T11:25:51;10.20;;;9.90;;
10096;SDS011;5087;42.662;23.466;2024-03-08T11:28:19;10.40;;;10.10;;
10096;SDS011;5087;42.662;23.466;2024-03-08T11:33:52;8.70;;;8.50;;
10096;SDS011;5087;42.662;23.466;2024-03-08T11:36:21;9.60;;;9.30;;
10096;SDS011;5087;42.662;23.466;2024-03-08T11:38:49;8.73;;;8.53;;
10096;SDS011;5087;42.662;23.466;2024-03-08T11:41:18;10.17;;;9.87;;
10096;SDS011;5087;42.662;23.466;2024-03-08T11:43:46;10.00;;;9.70;;
10096;SDS011;5087;42.662;23.466;2024-03-08T11:46:15;12.00;;;11.60;;
10096;SDS011;5087;42.662;23.466;2024-03-08T11:48:44;11.00;;;10.70;;
10096;SDS011;5087;42.662;23.466;2024-03-08T11:51:13;12.40;;;12.00;;
10096;SDS011;5087;42.662;23.466;2024-03-08T11:53:44;12.20;;;11.80;;
10096;SDS011;5087;42.662;23.466;2024-03-08T11:56:11;11.10;;;10.80;;
10096;SDS011;5087;42.662;23.466;2024-03-08T11:58:40;11.10;;;10.80;;
10096;SDS011;5087;42.662;23.466;2024-03-08T12:01:24;12.10;;;11.70;;
10096;SDS011;5087;42.662;23.466;2024-03-08T12:03:53;12.83;;;12.43;;
10096;SDS011;5087;42.662;23.466;2024-03-08T12:06:24;11.70;;;11.30;;
10096;SDS011;5087;42.662;23.466;2024-03-08T12:08:52;11.30;;;11.00;;
10096;SDS011;5087;42.662;23.466;2024-03-08T12:11:19;11.90;;;11.50;;
10096;SDS011;5087;42.662;23.466;2024-03-08T12:13:48;12.40;;;12.00;;
10096;SDS011;5087;42.662;23.466;2024-03-08T12:16:19;11.40;;;11.10;;
10096;SDS011;5087;42.662;23.466;2024-03-08T12:18:50;12.60;;;12.20;;
10096;SDS011;5087;42.662;23.466;2024-03-08T12:21:19;13.00;;;12.60;;
10096;SDS011;5087;42.662;23.466;2024-03-08T12:23:47;13.40;;;13.00;;
10096;SDS011;5087;42.662;23.466;2024-03-08T12:26:28;12.30;;;11.90;;
10096;SDS011;5087;42.662;23.466;2024-03-08T12:31:48;13.00;;;12.60;;
10096;SDS011;5087;42.662;23.466;2024-03-08T12:34:19;10.57;;;10.27;;
10096;SDS011;5087;42.662;23.466;2024-03-08T12:36:47;10.00;;;9.70;;
10096;SDS011;5087;42.662;23.466;2024-03-08T12:39:16;10.53;;;10.23;;
10096;SDS011;5087;42.662;23.466;2024-03-08T12:41:47;9.67;;;9.37;;
10096;SDS011;5087;42.662;23.466;2024-03-08T12:44:19;9.27;;;9.00;;
10096;SDS011;5087;42.662;23.466;2024-03-08T12:46:47;9.40;;;9.10;;
10096;SDS011;5087;42.662;23.466;2024-03-08T12:49:16;10.80;;;10.50;;
10096;SDS011;5087;42.662;23.466;2024-03-08T12:51:45;10.47;;;10.17;;
10096;SDS011;5087;42.662;23.466;2024-03-08T12:54:13;10.30;;;10.00;;
10096;SDS011;5087;42.662;23.466;2024-03-08T12:56:44;10.77;;;10.47;;
10096;SDS011;5087;42.662;23.466;2024-03-08T12:59:13;9.90;;;9.60;;
10096;SDS011;5087;42.662;23.466;2024-03-08T13:01:41;10.00;;;9.70;;
10096;SDS011;5087;42.662;23.466;2024-03-08T13:04:09;10.63;;;10.33;;
10096;SDS011;5087;42.662;23.466;2024-03-08T13:06:40;10.43;;;10.13;;
10096;SDS011;5087;42.662;23.466;2024-03-08T13:09:44;11.70;;;11.30;;
10096;SDS011;5087;42.662;23.466;2024-03-08T13:12:11;10.67;;;10.37;;
10096;SDS011;5087;42.662;23.466;2024-03-08T13:14:42;9.33;;;9.03;;
10096;SDS011;5087;42.662;23.466;2024-03-08T13:17:10;10.20;;;9.90;;
10096;SDS011;5087;42.662;23.466;2024-03-08T13:19:37;10.50;;;10.20;;
10096;SDS011;5087;42.662;23.466;2024-03-08T13:22:06;10.43;;;10.13;;
10096;SDS011;5087;42.662;23.466;2024-03-08T13:24:37;10.50;;;10.20;;
10096;SDS011;5087;42.662;23.466;2024-03-08T13:27:06;9.63;;;9.33;;
10096;SDS011;5087;42.662;23.466;2024-03-08T13:29:45;10.50;;;10.20;;
10096;SDS011;5087;42.662;23.466;2024-03-08T13:32:17;8.53;;;8.33;;
10096;SDS011;5087;42.662;23.466;2024-03-08T13:34:53;9.10;;;8.90;;
10096;SDS011;5087;42.662;23.466;2024-03-08T13:37:22;8.73;;;8.53;;
10096;SDS011;5087;42.662;23.466;2024-03-08T13:39:49;8.37;;;8.17;;
10096;SDS011;5087;42.662;23.466;2024-03-08T13:42:18;8.00;;;7.80;;
10096;SDS011;5087;42.662;23.466;2024-03-08T13:44:45;7.70;;;7.50;;
10096;SDS011;5087;42.662;23.466;2024-03-08T13:47:13;6.60;;;6.50;;
10096;SDS011;5087;42.662;23.466;2024-03-08T13:49:40;5.53;;;5.43;;
10096;SDS011;5087;42.662;23.466;2024-03-08T13:52:09;5.30;;;5.20;;
10096;SDS011;5087;42.662;23.466;2024-03-08T13:54:39;4.10;;;4.00;;
10096;SDS011;5087;42.662;23.466;2024-03-08T13:57:10;3.00;;;3.00;;
10096;SDS011;5087;42.662;23.466;2024-03-08T13:59:37;3.20;;;3.20;;
10096;SDS011;5087;42.662;23.466;2024-03-08T14:02:08;3.90;;;3.90;;
10096;SDS011;5087;42.662;23.466;2024-03-08T14:04:38;3.20;;;3.20;;
10096;SDS011;5087;42.662;23.466;2024-03-08T14:07:09;3.30;;;3.30;;
10096;SDS011;5087;42.662;23.466;2024-03-08T14:09:36;3.30;;;3.30;;
10096;SDS011;5087;42.662;23.466;2024-03-08T14:12:08;3.20;;;3.20;;
10096;SDS011;5087;42.662;23.466;2024-03-08T14:14:35;3.03;;;3.03;;
10096;SDS011;5087;42.662;23.466;2024-03-08T14:17:03;3.10;;;3.10;;
10096;SDS011;5087;42.662;23.466;2024-03-08T14:19:32;3.37;;;3.37;;
10096;SDS011;5087;42.662;23.466;2024-03-08T14:22:01;4.10;;;4.00;;
10096;SDS011;5087;42.662;23.466;2024-03-08T14:24:33;3.90;;;3.90;;
10096;SDS011;5087;42.662;23.466;2024-03-08T14:27:07;4.30;;;4.20;;
10096;SDS011;5087;42.662;23.466;2024-03-08T14:29:38;4.10;;;4.00;;
10096;SDS011;5087;42.662;23.466;2024-03-08T14:32:05;4.00;;;4.00;;
10096;SDS011;5087;42.662;23.466;2024-03-08T14:34:33;4.10;;;4.00;;
10096;SDS011;5087;42.662;23.466;2024-03-08T14:37:01;3.43;;;3.43;;
10096;SDS011;5087;42.662;23.466;2024-03-08T14:39:36;4.10;;;4.00;;
10096;SDS011;5087;42.662;23.466;2024-03-08T14:42:05;3.90;;;3.90;;
10096;SDS011;5087;42.662;23.466;2024-03-08T14:44:38;4.10;;;4.00;;
10096;SDS011;5087;42.662;23.466;2024-03-08T14:47:05;3.80;;;3.80;;
10096;SDS011;5087;42.662;23.466;2024-03-08T14:49:39;3.67;;;3.67;;
10096;SDS011;5087;42.662;23.466;2024-03-08T14:52:08;3.60;;;3.60;;
10096;SDS011;5087;42.662;23.466;2024-03-08T14:54:52;3.30;;;3.30;;
10096;SDS011;5087;42.662;23.466;2024-03-08T14:57:24;3.43;;;3.43;;
10096;SDS011;5087;42.662;23.466;2024-03-08T14:59:54;3.70;;;3.70;;
10096;SDS011;5087;42.662;23.466;2024-03-08T15:02:23;3.53;;;3.53;;
10096;SDS011;5087;42.662;23.466;2024-03-08T15:04:50;3.70;;;3.70;;
10096;SDS011;5087;42.662;23.466;2024-03-08T15:07:27;3.50;;;3.50;;
10096;SDS011;5087;42.662;23.466;2024-03-08T15:09:59;3.50;;;3.50;;
10096;SDS011;5087;42.662;23.466;2024-03-08T15:12:28;3.70;;;3.70;;
10096;SDS011;5087;42.662;23.466;2024-03-08T15:14:56;3.50;;;3.50;;
10096;SDS011;5087;42.662;23.466;2024-03-08T15:17:23;4.00;;;3.90;;
10096;SDS011;5087;42.662;23.466;2024-03-08T15:19:50;4.07;;;3.97;;
10096;SDS011;5087;42.662;23.466;2024-03-08T15:22:19;4.50;;;4.40;;
10096;SDS011;5087;42.662;23.466;2024-03-08T15:24:49;4.90;;;4.80;;
10096;SDS011;5087;42.662;23.466;2024-03-08T15:27:17;4.60;;;4.50;;
10096;SDS011;5087;42.662;23.466;2024-03-08T15:29:55;5.00;;;4.90;;
10096;SDS011;5087;42.662;23.466;2024-03-08T15:32:24;4.60;;;4.50;;
10096;SDS011;5087;42.662;23.466;2024-03-08T15:34:56;4.70;;;4.60;;
10096;SDS011;5087;42.662;23.466;2024-03-08T15:37:23;5.00;;;4.90;;
10096;SDS011;5087;42.662;23.466;2024-03-08T15:39:51;4.90;;;4.80;;
10096;SDS011;5087;42.662;23.466;2024-03-08T15:42:18;4.50;;;4.40;;
10096;SDS011;5087;42.662;23.466;2024-03-08T15:44:48;5.07;;;4.97;;
10096;SDS011;5087;42.662;23.466;2024-03-08T15:47:18;5.17;;;5.07;;
10096;SDS011;5087;42.662;23.466;2024-03-08T15:49:47;5.10;;;5.00;;